sensor_id;sensor_type;location;lat;lon;timestamp;P1;durP1;ratioP1;P2;durP2;ratioP2
23044;SDS011;11690;51.716;23.066;2023-06-22T00:00:03;9.60;;;5.05;;
23044;SDS011;11690;51.716;23.066;2023-06-22T00:03:00;6.75;;;5.22;;
23044;SDS011;11690;51.716;23.066;2023-06-22T00:05:27;8.00;;;4.85;;
23044;SDS011;11690;51.716;23.066;2023-06-22T00:07:54;7.25;;;4.90;;
23044;SDS011;11690;51.716;23.066;2023-06-22T00:10:22;6.32;;;4.90;;
23044;SDS011;11690;51.716;23.066;2023-06-22T00:12:49;9.40;;;5.00;;
23044;SDS011;11690;51.716;23.066;2023-06-22T00:15:16;7.60;;;4.95;;
23044;SDS011;11690;51.716;23.066;2023-06-22T00:17:43;7.82;;;5.50;;
23044;SDS011;11690;51.716;23.066;2023-06-22T00:20:10;11.63;;;5.40;;
23044;SDS011;11690;51.716;23.066;2023-06-22T00:22:38;6.97;;;5.10;;
23044;SDS011;11690;51.716;23.066;2023-06-22T00:25:06;6.47;;;5.13;;
23044;SDS011;11690;51.716;23.066;2023-06-22T00:27:34;7.97;;;5.13;;
23044;SDS011;11690;51.716;23.066;2023-06-22T00:30:01;8.88;;;5.63;;
23044;SDS011;11690;51.716;23.066;2023-06-22T00:32:29;10.18;;;5.35;;
23044;SDS011;11690;51.716;23.066;2023-06-22T00:34:56;7.70;;;4.90;;
23044;SDS011;11690;51.716;23.066;2023-06-22T00:37:23;8.23;;;5.70;;
23044;SDS011;11690;51.716;23.066;2023-06-22T00:39:52;8.07;;;4.90;;
23044;SDS011;11690;51.716;23.066;2023-06-22T00:42:19;7.15;;;4.93;;
23044;SDS011;11690;51.716;23.066;2023-06-22T00:44:47;9.32;;;5.57;;
23044;SDS011;11690;51.716;23.066;2023-06-22T00:47:14;9.30;;;5.28;;
23044;SDS011;11690;51.716;23.066;2023-06-22T00:49:43;6.38;;;4.88;;
23044;SDS011;11690;51.716;23.066;2023-06-22T00:52:10;8.35;;;5.70;;
23044;SDS011;11690;51.716;23.066;2023-06-22T00:54:40;7.88;;;4.93;;
23044;SDS011;11690;51.716;23.066;2023-06-22T00:57:12;7.65;;;5.45;;
23044;SDS011;11690;51.716;23.066;2023-06-22T00:59:43;7.15;;;4.95;;
23044;SDS011;11690;51.716;23.066;2023-06-22T01:02:11;7.38;;;5.00;;
23044;SDS011;11690;51.716;23.066;2023-06-22T01:04:38;6.75;;;5.20;;
23044;SDS011;11690;51.716;23.066;2023-06-22T01:12:40;6.38;;;4.75;;
23044;SDS011;11690;51.716;23.066;2023-06-22T01:15:14;7.53;;;5.32;;
23044;SDS011;11690;51.716;23.066;2023-06-22T01:17:46;7.78;;;5.25;;
23044;SDS011;11690;51.716;23.066;2023-06-22T01:20:14;7.03;;;5.32;;
23044;SDS011;11690;51.716;23.066;2023-06-22T01:23:17;8.07;;;5.25;;
23044;SDS011;11690;51.716;23.066;2023-06-22T01:25:48;9.07;;;5.68;;
23044;SDS011;11690;51.716;23.066;2023-06-22T01:31:27;8.80;;;5.72;;
23044;SDS011;11690;51.716;23.066;2023-06-22T01:34:00;9.40;;;5.15;;
23044;SDS011;11690;51.716;23.066;2023-06-22T01:36:30;8.82;;;5.82;;
23044;SDS011;11690;51.716;23.066;2023-06-22T01:38:58;8.70;;;6.05;;
23044;SDS011;11690;51.716;23.066;2023-06-22T01:41:27;8.57;;;5.95;;
23044;SDS011;11690;51.716;23.066;2023-06-22T01:43:55;8.32;;;5.72;;
23044;SDS011;11690;51.716;23.066;2023-06-22T01:46:23;8.00;;;6.03;;
23044;SDS011;11690;51.716;23.066;2023-06-22T01:48:50;10.35;;;6.85;;
23044;SDS011;11690;51.716;23.066;2023-06-22T01:51:17;9.45;;;6.18;;
23044;SDS011;11690;51.716;23.066;2023-06-22T01:53:44;9.07;;;6.25;;
23044;SDS011;11690;51.716;23.066;2023-06-22T01:56:16;8.60;;;6.22;;
23044;SDS011;11690;51.716;23.066;2023-06-22T01:58:51;9.45;;;6.30;;
23044;SDS011;11690;51.716;23.066;2023-06-22T02:01:31;8.45;;;6.43;;
23044;SDS011;11690;51.716;23.066;2023-06-22T02:04:43;9.35;;;6.60;;
23044;SDS011;11690;51.716;23.066;2023-06-22T02:07:14;7.60;;;5.40;;
23044;SDS011;11690;51.716;23.066;2023-06-22T02:09:44;9.80;;;6.57;;
23044;SDS011;11690;51.716;23.066;2023-06-22T02:12:12;9.05;;;6.55;;
23044;SDS011;11690;51.716;23.066;2023-06-22T02:14:40;9.20;;;6.72;;
23044;SDS011;11690;51.716;23.066;2023-06-22T02:17:08;8.48;;;6.43;;
23044;SDS011;11690;51.716;23.066;2023-06-22T02:19:36;7.72;;;6.00;;
23044;SDS011;11690;51.716;23.066;2023-06-22T02:22:04;8.90;;;6.50;;
23044;SDS011;11690;51.716;23.066;2023-06-22T02:24:31;8.98;;;6.35;;
23044;SDS011;11690;51.716;23.066;2023-06-22T02:27:00;10.43;;;6.65;;
23044;SDS011;11690;51.716;23.066;2023-06-22T02:29:31;9.15;;;5.85;;
23044;SDS011;11690;51.716;23.066;2023-06-22T02:31:58;10.35;;;6.97;;
23044;SDS011;11690;51.716;23.066;2023-06-22T02:34:25;8.25;;;6.40;;
23044;SDS011;11690;51.716;23.066;2023-06-22T02:36:53;10.10;;;6.70;;
23044;SDS011;11690;51.716;23.066;2023-06-22T02:39:21;8.40;;;6.25;;
23044;SDS011;11690;51.716;23.066;2023-06-22T02:41:50;12.55;;;6.32;;
23044;SDS011;11690;51.716;23.066;2023-06-22T02:44:17;8.80;;;6.70;;
23044;SDS011;11690;51.716;23.066;2023-06-22T02:46:47;9.13;;;6.63;;
23044;SDS011;11690;51.716;23.066;2023-06-22T02:49:15;10.77;;;6.38;;
23044;SDS011;11690;51.716;23.066;2023-06-22T02:51:45;7.85;;;6.32;;
23044;SDS011;11690;51.716;23.066;2023-06-22T02:54:14;9.27;;;6.82;;
23044;SDS011;11690;51.716;23.066;2023-06-22T02:56:44;9.95;;;6.65;;
23044;SDS011;11690;51.716;23.066;2023-06-22T02:59:11;8.60;;;6.22;;
23044;SDS011;11690;51.716;23.066;2023-06-22T03:01:39;9.40;;;6.70;;
23044;SDS011;11690;51.716;23.066;2023-06-22T03:04:17;9.57;;;7.05;;
23044;SDS011;11690;51.716;23.066;2023-06-22T03:06:45;9.63;;;6.78;;
23044;SDS011;11690;51.716;23.066;2023-06-22T03:09:17;9.55;;;6.85;;
23044;SDS011;11690;51.716;23.066;2023-06-22T03:11:45;9.23;;;6.47;;
23044;SDS011;11690;51.716;23.066;2023-06-22T03:14:12;8.32;;;6.65;;
23044;SDS011;11690;51.716;23.066;2023-06-22T03:16:39;8.85;;;6.57;;
23044;SDS011;11690;51.716;23.066;2023-06-22T03:19:07;8.13;;;6.00;;
23044;SDS011;11690;51.716;23.066;2023-06-22T03:21:35;10.90;;;6.90;;
23044;SDS011;11690;51.716;23.066;2023-06-22T03:24:05;8.73;;;6.70;;
23044;SDS011;11690;51.716;23.066;2023-06-22T03:26:34;8.15;;;6.63;;
23044;SDS011;11690;51.716;23.066;2023-06-22T03:29:01;8.27;;;6.30;;
23044;SDS011;11690;51.716;23.066;2023-06-22T03:31:29;10.50;;;6.65;;
23044;SDS011;11690;51.716;23.066;2023-06-22T03:33:57;7.90;;;6.28;;
23044;SDS011;11690;51.716;23.066;2023-06-22T03:36:24;8.73;;;6.43;;
23044;SDS011;11690;51.716;23.066;2023-06-22T03:38:52;9.15;;;6.57;;
23044;SDS011;11690;51.716;23.066;2023-06-22T03:41:19;9.25;;;6.55;;
23044;SDS011;11690;51.716;23.066;2023-06-22T03:43:47;7.95;;;6.50;;
23044;SDS011;11690;51.716;23.066;2023-06-22T03:46:15;9.35;;;6.95;;
23044;SDS011;11690;51.716;23.066;2023-06-22T03:48:42;10.57;;;6.25;;
23044;SDS011;11690;51.716;23.066;2023-06-22T03:51:10;10.40;;;7.45;;
23044;SDS011;11690;51.716;23.066;2023-06-22T03:53:36;8.18;;;6.50;;
23044;SDS011;11690;51.716;23.066;2023-06-22T03:56:04;10.45;;;6.90;;
23044;SDS011;11690;51.716;23.066;2023-06-22T03:58:31;10.20;;;7.15;;
23044;SDS011;11690;51.716;23.066;2023-06-22T04:01:02;11.05;;;7.10;;
23044;SDS011;11690;51.716;23.066;2023-06-22T04:03:29;9.13;;;6.50;;
23044;SDS011;11690;51.716;23.066;2023-06-22T04:05:56;9.95;;;7.00;;
23044;SDS011;11690;51.716;23.066;2023-06-22T04:08:23;10.63;;;6.78;;
23044;SDS011;11690;51.716;23.066;2023-06-22T04:10:50;8.35;;;6.40;;
23044;SDS011;11690;51.716;23.066;2023-06-22T04:13:17;9.75;;;6.85;;
23044;SDS011;11690;51.716;23.066;2023-06-22T04:15:44;11.40;;;7.20;;
23044;SDS011;11690;51.716;23.066;2023-06-22T04:18:11;10.00;;;6.78;;
23044;SDS011;11690;51.716;23.066;2023-06-22T04:20:40;11.18;;;6.78;;
23044;SDS011;11690;51.716;23.066;2023-06-22T04:23:07;8.23;;;6.57;;
23044;SDS011;11690;51.716;23.066;2023-06-22T04:25:34;13.18;;;6.75;;
23044;SDS011;11690;51.716;23.066;2023-06-22T04:28:01;9.25;;;6.90;;
23044;SDS011;11690;51.716;23.066;2023-06-22T04:30:32;9.40;;;6.90;;
23044;SDS011;11690;51.716;23.066;2023-06-22T04:32:59;8.77;;;6.85;;
23044;SDS011;11690;51.716;23.066;2023-06-22T04:35:27;12.35;;;7.53;;
23044;SDS011;11690;51.716;23.066;2023-06-22T04:37:57;11.02;;;7.32;;
23044;SDS011;11690;51.716;23.066;2023-06-22T04:40:25;10.68;;;7.28;;
23044;SDS011;11690;51.716;23.066;2023-06-22T04:42:53;13.60;;;7.45;;
23044;SDS011;11690;51.716;23.066;2023-06-22T04:45:21;11.80;;;7.57;;
23044;SDS011;11690;51.716;23.066;2023-06-22T04:47:48;10.20;;;7.00;;
23044;SDS011;11690;51.716;23.066;2023-06-22T04:50:16;10.38;;;7.38;;
23044;SDS011;11690;51.716;23.066;2023-06-22T04:52:44;13.80;;;8.45;;
23044;SDS011;11690;51.716;23.066;2023-06-22T04:55:14;9.10;;;6.72;;
23044;SDS011;11690;51.716;23.066;2023-06-22T04:57:45;10.38;;;7.55;;
23044;SDS011;11690;51.716;23.066;2023-06-22T05:00:19;11.50;;;7.78;;
23044;SDS011;11690;51.716;23.066;2023-06-22T05:02:46;11.75;;;8.02;;
23044;SDS011;11690;51.716;23.066;2023-06-22T05:05:14;12.00;;;7.95;;
23044;SDS011;11690;51.716;23.066;2023-06-22T05:07:42;13.38;;;8.65;;
23044;SDS011;11690;51.716;23.066;2023-06-22T05:10:11;12.35;;;7.57;;
23044;SDS011;11690;51.716;23.066;2023-06-22T05:12:39;11.55;;;8.00;;
23044;SDS011;11690;51.716;23.066;2023-06-22T05:15:07;12.45;;;8.13;;
23044;SDS011;11690;51.716;23.066;2023-06-22T05:17:36;20.10;;;9.75;;
23044;SDS011;11690;51.716;23.066;2023-06-22T05:20:04;14.40;;;8.82;;
23044;SDS011;11690;51.716;23.066;2023-06-22T05:22:33;12.73;;;8.23;;
23044;SDS011;11690;51.716;23.066;2023-06-22T05:25:00;13.02;;;8.30;;
23044;SDS011;11690;51.716;23.066;2023-06-22T05:27:27;12.25;;;7.80;;
23044;SDS011;11690;51.716;23.066;2023-06-22T05:29:54;11.15;;;7.85;;
23044;SDS011;11690;51.716;23.066;2023-06-22T05:32:21;9.77;;;7.72;;
23044;SDS011;11690;51.716;23.066;2023-06-22T05:34:49;10.93;;;7.85;;
23044;SDS011;11690;51.716;23.066;2023-06-22T05:37:16;12.25;;;8.82;;
23044;SDS011;11690;51.716;23.066;2023-06-22T05:39:43;11.70;;;8.13;;
23044;SDS011;11690;51.716;23.066;2023-06-22T05:42:10;10.68;;;7.90;;
23044;SDS011;11690;51.716;23.066;2023-06-22T05:44:37;12.38;;;8.63;;
23044;SDS011;11690;51.716;23.066;2023-06-22T05:47:06;11.23;;;8.05;;
23044;SDS011;11690;51.716;23.066;2023-06-22T05:49:33;15.15;;;8.43;;
23044;SDS011;11690;51.716;23.066;2023-06-22T05:52:00;14.60;;;9.05;;
23044;SDS011;11690;51.716;23.066;2023-06-22T05:54:27;12.52;;;9.30;;
23044;SDS011;11690;51.716;23.066;2023-06-22T05:56:55;12.65;;;8.30;;
23044;SDS011;11690;51.716;23.066;2023-06-22T05:59:22;11.85;;;9.02;;
23044;SDS011;11690;51.716;23.066;2023-06-22T06:01:49;13.57;;;9.65;;
23044;SDS011;11690;51.716;23.066;2023-06-22T06:04:17;17.40;;;9.38;;
23044;SDS011;11690;51.716;23.066;2023-06-22T06:06:45;15.00;;;10.02;;
23044;SDS011;11690;51.716;23.066;2023-06-22T06:09:14;10.85;;;8.35;;
23044;SDS011;11690;51.716;23.066;2023-06-22T06:11:41;10.85;;;8.40;;
23044;SDS011;11690;51.716;23.066;2023-06-22T06:14:09;11.07;;;8.75;;
23044;SDS011;11690;51.716;23.066;2023-06-22T06:16:36;12.05;;;8.82;;
23044;SDS011;11690;51.716;23.066;2023-06-22T06:19:03;11.48;;;8.10;;
23044;SDS011;11690;51.716;23.066;2023-06-22T06:21:30;11.38;;;7.93;;
23044;SDS011;11690;51.716;23.066;2023-06-22T06:23:57;10.98;;;8.30;;
23044;SDS011;11690;51.716;23.066;2023-06-22T06:26:25;12.27;;;8.60;;
23044;SDS011;11690;51.716;23.066;2023-06-22T06:28:56;11.75;;;8.70;;
23044;SDS011;11690;51.716;23.066;2023-06-22T06:31:24;12.00;;;8.75;;
23044;SDS011;11690;51.716;23.066;2023-06-22T06:33:51;15.88;;;9.13;;
23044;SDS011;11690;51.716;23.066;2023-06-22T06:36:20;14.32;;;8.52;;
23044;SDS011;11690;51.716;23.066;2023-06-22T06:38:47;10.27;;;7.95;;
23044;SDS011;11690;51.716;23.066;2023-06-22T06:41:15;14.65;;;8.70;;
23044;SDS011;11690;51.716;23.066;2023-06-22T06:43:42;11.88;;;8.52;;
23044;SDS011;11690;51.716;23.066;2023-06-22T06:46:10;11.00;;;8.30;;
23044;SDS011;11690;51.716;23.066;2023-06-22T06:48:37;11.48;;;8.93;;
23044;SDS011;11690;51.716;23.066;2023-06-22T06:51:04;12.15;;;8.35;;
23044;SDS011;11690;51.716;23.066;2023-06-22T06:53:31;9.23;;;7.25;;
23044;SDS011;11690;51.716;23.066;2023-06-22T06:55:58;11.65;;;7.18;;
23044;SDS011;11690;51.716;23.066;2023-06-22T06:58:25;9.00;;;6.97;;
23044;SDS011;11690;51.716;23.066;2023-06-22T07:00:53;10.82;;;6.60;;
23044;SDS011;11690;51.716;23.066;2023-06-22T07:03:20;9.23;;;6.72;;
23044;SDS011;11690;51.716;23.066;2023-06-22T07:05:47;9.35;;;6.78;;
23044;SDS011;11690;51.716;23.066;2023-06-22T07:08:14;8.85;;;6.28;;
23044;SDS011;11690;51.716;23.066;2023-06-22T07:10:41;9.77;;;6.20;;
23044;SDS011;11690;51.716;23.066;2023-06-22T07:13:08;9.50;;;6.50;;
23044;SDS011;11690;51.716;23.066;2023-06-22T07:15:35;9.68;;;7.00;;
23044;SDS011;11690;51.716;23.066;2023-06-22T07:18:02;11.48;;;6.93;;
23044;SDS011;11690;51.716;23.066;2023-06-22T07:20:30;10.75;;;7.53;;
23044;SDS011;11690;51.716;23.066;2023-06-22T07:22:58;10.68;;;7.75;;
23044;SDS011;11690;51.716;23.066;2023-06-22T07:25:25;11.70;;;7.63;;
23044;SDS011;11690;51.716;23.066;2023-06-22T07:28:02;10.25;;;7.55;;
23044;SDS011;11690;51.716;23.066;2023-06-22T07:30:31;12.05;;;7.78;;
23044;SDS011;11690;51.716;23.066;2023-06-22T07:33:00;11.38;;;7.90;;
23044;SDS011;11690;51.716;23.066;2023-06-22T07:35:31;11.88;;;8.20;;
23044;SDS011;11690;51.716;23.066;2023-06-22T07:37:58;12.93;;;8.70;;
23044;SDS011;11690;51.716;23.066;2023-06-22T07:40:30;11.80;;;8.25;;
23044;SDS011;11690;51.716;23.066;2023-06-22T07:42:59;11.13;;;8.23;;
23044;SDS011;11690;51.716;23.066;2023-06-22T07:45:26;16.42;;;8.52;;
23044;SDS011;11690;51.716;23.066;2023-06-22T07:47:53;11.50;;;8.00;;
23044;SDS011;11690;51.716;23.066;2023-06-22T07:50:20;12.32;;;8.15;;
23044;SDS011;11690;51.716;23.066;2023-06-22T07:52:47;11.95;;;8.00;;
23044;SDS011;11690;51.716;23.066;2023-06-22T07:55:14;12.40;;;7.82;;
23044;SDS011;11690;51.716;23.066;2023-06-22T07:57:42;12.13;;;8.50;;
23044;SDS011;11690;51.716;23.066;2023-06-22T08:00:09;11.63;;;8.43;;
23044;SDS011;11690;51.716;23.066;2023-06-22T08:02:43;11.27;;;8.10;;
23044;SDS011;11690;51.716;23.066;2023-06-22T08:05:12;11.43;;;8.70;;
23044;SDS011;11690;51.716;23.066;2023-06-22T08:07:48;12.30;;;8.25;;
23044;SDS011;11690;51.716;23.066;2023-06-22T08:10:16;15.15;;;9.00;;
23044;SDS011;11690;51.716;23.066;2023-06-22T08:12:44;14.25;;;8.63;;
23044;SDS011;11690;51.716;23.066;2023-06-22T08:15:11;13.65;;;9.10;;
23044;SDS011;11690;51.716;23.066;2023-06-22T08:17:38;15.10;;;8.68;;
23044;SDS011;11690;51.716;23.066;2023-06-22T08:20:06;14.07;;;8.93;;
23044;SDS011;11690;51.716;23.066;2023-06-22T08:22:39;18.42;;;9.52;;
23044;SDS011;11690;51.716;23.066;2023-06-22T08:25:07;11.63;;;8.68;;
23044;SDS011;11690;51.716;23.066;2023-06-22T08:27:35;12.70;;;9.57;;
23044;SDS011;11690;51.716;23.066;2023-06-22T08:30:03;11.13;;;8.43;;
23044;SDS011;11690;51.716;23.066;2023-06-22T08:32:30;13.65;;;9.02;;
23044;SDS011;11690;51.716;23.066;2023-06-22T08:34:59;11.50;;;8.23;;
23044;SDS011;11690;51.716;23.066;2023-06-22T08:37:27;13.18;;;9.18;;
23044;SDS011;11690;51.716;23.066;2023-06-22T08:40:05;13.43;;;9.25;;
23044;SDS011;11690;51.716;23.066;2023-06-22T08:42:37;13.63;;;9.32;;
23044;SDS011;11690;51.716;23.066;2023-06-22T08:45:06;14.73;;;10.10;;
23044;SDS011;11690;51.716;23.066;2023-06-22T08:47:34;14.98;;;10.20;;
23044;SDS011;11690;51.716;23.066;2023-06-22T08:50:01;16.00;;;10.07;;
23044;SDS011;11690;51.716;23.066;2023-06-22T08:52:30;13.73;;;10.20;;
23044;SDS011;11690;51.716;23.066;2023-06-22T08:54:57;15.38;;;10.45;;
23044;SDS011;11690;51.716;23.066;2023-06-22T08:57:28;16.52;;;11.27;;
23044;SDS011;11690;51.716;23.066;2023-06-22T08:59:55;16.52;;;11.48;;
23044;SDS011;11690;51.716;23.066;2023-06-22T09:02:26;14.20;;;10.45;;
23044;SDS011;11690;51.716;23.066;2023-06-22T09:04:57;15.88;;;11.48;;
23044;SDS011;11690;51.716;23.066;2023-06-22T09:07:25;16.58;;;11.40;;
23044;SDS011;11690;51.716;23.066;2023-06-22T09:09:52;15.38;;;11.77;;
23044;SDS011;11690;51.716;23.066;2023-06-22T09:12:20;14.27;;;11.00;;
23044;SDS011;11690;51.716;23.066;2023-06-22T09:14:49;14.70;;;10.93;;
23044;SDS011;11690;51.716;23.066;2023-06-22T09:17:16;14.27;;;10.27;;
23044;SDS011;11690;51.716;23.066;2023-06-22T09:19:44;14.73;;;10.80;;
23044;SDS011;11690;51.716;23.066;2023-06-22T09:22:11;14.73;;;10.23;;
23044;SDS011;11690;51.716;23.066;2023-06-22T09:24:38;13.07;;;9.95;;
23044;SDS011;11690;51.716;23.066;2023-06-22T09:27:05;17.17;;;12.13;;
23044;SDS011;11690;51.716;23.066;2023-06-22T09:29:33;14.88;;;11.65;;
23044;SDS011;11690;51.716;23.066;2023-06-22T09:32:00;14.88;;;10.88;;
23044;SDS011;11690;51.716;23.066;2023-06-22T09:34:28;15.80;;;11.27;;
23044;SDS011;11690;51.716;23.066;2023-06-22T09:36:55;14.93;;;11.18;;
23044;SDS011;11690;51.716;23.066;2023-06-22T09:39:23;14.73;;;11.05;;
23044;SDS011;11690;51.716;23.066;2023-06-22T09:41:51;15.13;;;11.48;;
23044;SDS011;11690;51.716;23.066;2023-06-22T09:44:18;16.48;;;12.10;;
23044;SDS011;11690;51.716;23.066;2023-06-22T09:46:45;14.30;;;10.77;;
23044;SDS011;11690;51.716;23.066;2023-06-22T09:49:12;14.65;;;11.40;;
23044;SDS011;11690;51.716;23.066;2023-06-22T09:51:39;17.60;;;12.07;;
23044;SDS011;11690;51.716;23.066;2023-06-22T09:54:06;16.48;;;12.25;;
23044;SDS011;11690;51.716;23.066;2023-06-22T09:56:33;17.25;;;11.93;;
23044;SDS011;11690;51.716;23.066;2023-06-22T09:59:00;15.32;;;10.93;;
23044;SDS011;11690;51.716;23.066;2023-06-22T10:01:44;13.88;;;11.02;;
23044;SDS011;11690;51.716;23.066;2023-06-22T10:04:11;17.05;;;11.80;;
23044;SDS011;11690;51.716;23.066;2023-06-22T10:06:38;16.52;;;11.85;;
23044;SDS011;11690;51.716;23.066;2023-06-22T10:09:07;22.77;;;13.35;;
23044;SDS011;11690;51.716;23.066;2023-06-22T10:11:35;19.88;;;13.23;;
23044;SDS011;11690;51.716;23.066;2023-06-22T10:14:02;25.45;;;13.43;;
23044;SDS011;11690;51.716;23.066;2023-06-22T10:16:31;22.80;;;14.43;;
23044;SDS011;11690;51.716;23.066;2023-06-22T10:18:58;18.15;;;11.68;;
23044;SDS011;11690;51.716;23.066;2023-06-22T10:21:26;14.45;;;10.27;;
23044;SDS011;11690;51.716;23.066;2023-06-22T10:23:55;13.02;;;9.95;;
23044;SDS011;11690;51.716;23.066;2023-06-22T10:26:22;13.10;;;9.95;;
23044;SDS011;11690;51.716;23.066;2023-06-22T10:28:49;14.48;;;9.35;;
23044;SDS011;11690;51.716;23.066;2023-06-22T10:31:33;13.77;;;9.35;;
23044;SDS011;11690;51.716;23.066;2023-06-22T10:34:00;10.40;;;7.78;;
23044;SDS011;11690;51.716;23.066;2023-06-22T10:36:27;11.38;;;7.43;;
23044;SDS011;11690;51.716;23.066;2023-06-22T10:38:54;9.68;;;6.80;;
23044;SDS011;11690;51.716;23.066;2023-06-22T10:41:22;8.48;;;6.82;;
23044;SDS011;11690;51.716;23.066;2023-06-22T10:43:49;10.60;;;6.72;;
23044;SDS011;11690;51.716;23.066;2023-06-22T10:46:16;12.45;;;7.78;;
23044;SDS011;11690;51.716;23.066;2023-06-22T10:48:43;14.55;;;9.90;;
23044;SDS011;11690;51.716;23.066;2023-06-22T10:51:11;14.18;;;9.38;;
23044;SDS011;11690;51.716;23.066;2023-06-22T10:53:38;15.95;;;11.10;;
23044;SDS011;11690;51.716;23.066;2023-06-22T10:56:05;18.65;;;11.18;;
23044;SDS011;11690;51.716;23.066;2023-06-22T10:58:32;14.68;;;11.00;;
23044;SDS011;11690;51.716;23.066;2023-06-22T11:00:59;25.25;;;14.07;;
23044;SDS011;11690;51.716;23.066;2023-06-22T11:03:26;20.00;;;14.32;;
23044;SDS011;11690;51.716;23.066;2023-06-22T11:05:54;22.98;;;15.30;;
23044;SDS011;11690;51.716;23.066;2023-06-22T11:08:21;25.73;;;16.33;;
23044;SDS011;11690;51.716;23.066;2023-06-22T11:10:48;24.63;;;16.17;;
23044;SDS011;11690;51.716;23.066;2023-06-22T11:13:16;23.42;;;16.65;;
23044;SDS011;11690;51.716;23.066;2023-06-22T11:15:43;23.63;;;15.27;;
23044;SDS011;11690;51.716;23.066;2023-06-22T11:18:10;21.92;;;14.80;;
23044;SDS011;11690;51.716;23.066;2023-06-22T11:20:37;23.70;;;16.60;;
23044;SDS011;11690;51.716;23.066;2023-06-22T11:23:07;24.48;;;15.13;;
23044;SDS011;11690;51.716;23.066;2023-06-22T11:25:35;25.95;;;15.50;;
23044;SDS011;11690;51.716;23.066;2023-06-22T11:28:02;22.83;;;15.13;;
23044;SDS011;11690;51.716;23.066;2023-06-22T11:30:30;18.73;;;13.60;;
23044;SDS011;11690;51.716;23.066;2023-06-22T11:32:58;20.02;;;13.93;;
23044;SDS011;11690;51.716;23.066;2023-06-22T11:35:26;20.55;;;13.68;;
23044;SDS011;11690;51.716;23.066;2023-06-22T11:37:53;17.67;;;13.23;;
23044;SDS011;11690;51.716;23.066;2023-06-22T11:40:20;17.90;;;12.30;;
23044;SDS011;11690;51.716;23.066;2023-06-22T11:42:47;19.80;;;13.57;;
23044;SDS011;11690;51.716;23.066;2023-06-22T11:45:14;17.77;;;12.50;;
23044;SDS011;11690;51.716;23.066;2023-06-22T11:47:41;17.02;;;11.45;;
23044;SDS011;11690;51.716;23.066;2023-06-22T11:50:09;17.63;;;12.13;;
23044;SDS011;11690;51.716;23.066;2023-06-22T11:52:36;17.40;;;12.15;;
23044;SDS011;11690;51.716;23.066;2023-06-22T11:55:04;19.70;;;13.05;;
23044;SDS011;11690;51.716;23.066;2023-06-22T11:57:52;19.98;;;12.13;;
23044;SDS011;11690;51.716;23.066;2023-06-22T12:00:20;18.75;;;12.68;;
23044;SDS011;11690;51.716;23.066;2023-06-22T12:02:50;17.52;;;12.32;;
23044;SDS011;11690;51.716;23.066;2023-06-22T12:05:19;16.40;;;11.85;;
23044;SDS011;11690;51.716;23.066;2023-06-22T12:07:48;17.13;;;11.57;;
23044;SDS011;11690;51.716;23.066;2023-06-22T12:10:15;15.02;;;11.13;;
23044;SDS011;11690;51.716;23.066;2023-06-22T12:12:42;14.88;;;10.90;;
23044;SDS011;11690;51.716;23.066;2023-06-22T12:15:10;13.05;;;10.05;;
23044;SDS011;11690;51.716;23.066;2023-06-22T12:17:37;13.60;;;10.13;;
23044;SDS011;11690;51.716;23.066;2023-06-22T12:20:05;13.88;;;9.65;;
23044;SDS011;11690;51.716;23.066;2023-06-22T12:22:33;14.07;;;10.18;;
23044;SDS011;11690;51.716;23.066;2023-06-22T12:25:01;14.38;;;10.45;;
23044;SDS011;11690;51.716;23.066;2023-06-22T12:27:28;14.48;;;10.65;;
23044;SDS011;11690;51.716;23.066;2023-06-22T12:29:57;14.38;;;10.10;;
23044;SDS011;11690;51.716;23.066;2023-06-22T12:32:24;11.23;;;8.80;;
23044;SDS011;11690;51.716;23.066;2023-06-22T12:34:52;15.82;;;10.25;;
23044;SDS011;11690;51.716;23.066;2023-06-22T12:37:19;13.60;;;9.57;;
23044;SDS011;11690;51.716;23.066;2023-06-22T12:39:47;12.93;;;9.15;;
23044;SDS011;11690;51.716;23.066;2023-06-22T12:42:14;11.50;;;8.85;;
23044;SDS011;11690;51.716;23.066;2023-06-22T12:44:42;12.20;;;8.75;;
23044;SDS011;11690;51.716;23.066;2023-06-22T12:47:09;10.45;;;7.90;;
23044;SDS011;11690;51.716;23.066;2023-06-22T12:49:38;11.82;;;8.77;;
23044;SDS011;11690;51.716;23.066;2023-06-22T12:52:09;13.05;;;9.07;;
23044;SDS011;11690;51.716;23.066;2023-06-22T12:54:37;12.80;;;9.43;;
23044;SDS011;11690;51.716;23.066;2023-06-22T12:57:20;13.15;;;9.60;;
23044;SDS011;11690;51.716;23.066;2023-06-22T12:59:47;13.80;;;8.98;;
23044;SDS011;11690;51.716;23.066;2023-06-22T13:02:15;10.15;;;7.72;;
23044;SDS011;11690;51.716;23.066;2023-06-22T13:04:42;9.38;;;7.47;;
23044;SDS011;11690;51.716;23.066;2023-06-22T13:07:10;10.68;;;7.88;;
23044;SDS011;11690;51.716;23.066;2023-06-22T13:09:49;9.43;;;7.60;;
23044;SDS011;11690;51.716;23.066;2023-06-22T13:12:20;11.38;;;7.93;;
23044;SDS011;11690;51.716;23.066;2023-06-22T13:14:48;11.43;;;7.82;;
23044;SDS011;11690;51.716;23.066;2023-06-22T13:17:15;11.90;;;7.40;;
23044;SDS011;11690;51.716;23.066;2023-06-22T13:19:42;11.80;;;7.45;;
23044;SDS011;11690;51.716;23.066;2023-06-22T13:22:26;10.23;;;7.05;;
23044;SDS011;11690;51.716;23.066;2023-06-22T13:25:01;10.25;;;7.15;;
23044;SDS011;11690;51.716;23.066;2023-06-22T13:27:28;11.43;;;7.85;;
23044;SDS011;11690;51.716;23.066;2023-06-22T13:29:56;10.15;;;7.20;;
23044;SDS011;11690;51.716;23.066;2023-06-22T13:32:23;11.85;;;7.28;;
23044;SDS011;11690;51.716;23.066;2023-06-22T13:34:51;10.52;;;6.93;;
23044;SDS011;11690;51.716;23.066;2023-06-22T13:37:19;7.80;;;5.85;;
23044;SDS011;11690;51.716;23.066;2023-06-22T13:39:46;9.50;;;6.43;;
23044;SDS011;11690;51.716;23.066;2023-06-22T13:42:13;8.70;;;6.13;;
23044;SDS011;11690;51.716;23.066;2023-06-22T13:44:41;8.90;;;6.47;;
23044;SDS011;11690;51.716;23.066;2023-06-22T13:47:08;9.43;;;6.82;;
23044;SDS011;11690;51.716;23.066;2023-06-22T13:49:35;10.25;;;5.63;;
23044;SDS011;11690;51.716;23.066;2023-06-22T13:52:02;6.63;;;5.03;;
23044;SDS011;11690;51.716;23.066;2023-06-22T13:54:31;7.82;;;5.35;;
23044;SDS011;11690;51.716;23.066;2023-06-22T13:57:01;6.57;;;5.30;;
23044;SDS011;11690;51.716;23.066;2023-06-22T13:59:29;6.45;;;5.07;;
23044;SDS011;11690;51.716;23.066;2023-06-22T14:01:56;6.60;;;4.90;;
23044;SDS011;11690;51.716;23.066;2023-06-22T14:04:23;8.00;;;4.85;;
23044;SDS011;11690;51.716;23.066;2023-06-22T14:06:50;5.65;;;4.30;;
23044;SDS011;11690;51.716;23.066;2023-06-22T14:09:21;6.82;;;5.18;;
23044;SDS011;11690;51.716;23.066;2023-06-22T14:11:48;6.75;;;4.70;;
23044;SDS011;11690;51.716;23.066;2023-06-22T14:14:15;7.40;;;4.70;;
23044;SDS011;11690;51.716;23.066;2023-06-22T14:16:42;5.25;;;4.15;;
23044;SDS011;11690;51.716;23.066;2023-06-22T14:19:09;6.75;;;4.43;;
23044;SDS011;11690;51.716;23.066;2023-06-22T14:21:36;5.28;;;4.20;;
23044;SDS011;11690;51.716;23.066;2023-06-22T14:24:04;7.35;;;5.03;;
23044;SDS011;11690;51.716;23.066;2023-06-22T14:26:31;6.18;;;5.03;;
23044;SDS011;11690;51.716;23.066;2023-06-22T14:28:58;6.20;;;4.68;;
23044;SDS011;11690;51.716;23.066;2023-06-22T14:31:25;5.35;;;3.97;;
23044;SDS011;11690;51.716;23.066;2023-06-22T14:33:53;9.02;;;5.10;;
23044;SDS011;11690;51.716;23.066;2023-06-22T14:36:20;6.28;;;4.47;;
23044;SDS011;11690;51.716;23.066;2023-06-22T14:38:47;6.32;;;4.90;;